Time;durP1;ratioP1;P1;durP2;ratioP2;P2;SDS_P1;SDS_P2;PMS_P1;PMS_P2;Temp;Humidity;BMP_temperature;BMP_pressure;BME280_temperature;BME280_humidity;BME280_pressure;Samples;Min_cycle;Max_cycle;Signal;HPM_P1;HPM_P2
2023/10/14 00:00:31;;;;;;;23.40;12.63;;;20.40;40.70;;;;;;5012473;28;20735;-77
2023/10/14 00:03:05;;;;;;;27.75;12.75;;;20.40;40.40;;;;;;5014589;28;20397;-78
2023/10/14 00:05:31;;;;;;;26.15;12.30;;;20.40;39.60;;;;;;4995476;28;20412;-77
2023/10/14 00:07:56;;;;;;;25.75;10.82;;;20.40;39.60;;;;;;4994534;28;20451;-77
2023/10/14 00:10:22;;;;;;;24.40;11.80;;;20.30;39.50;;;;;;5012728;28;20443;-79
2023/10/14 00:12:53;;;;;;;22.07;11.17;;;20.40;39.10;;;;;;5013468;28;20404;-77
2023/10/14 00:15:19;;;;;;;18.60;10.60;;;20.30;39.20;;;;;;5018927;28;20931;-77
2023/10/14 00:17:45;;;;;;;27.23;10.52;;;20.30;38.70;;;;;;5014537;28;20545;-78
2023/10/14 00:20:11;;;;;;;17.57;10.33;;;20.30;38.70;;;;;;5010927;28;20388;-77
2023/10/14 00:22:39;;;;;;;17.77;9.68;;;20.30;38.60;;;;;;5010916;28;20400;-77
2023/10/14 00:25:19;;;;;;;20.80;9.73;;;20.30;38.60;;;;;;5010630;28;20380;-77
2023/10/14 00:27:45;;;;;;;18.97;9.80;;;20.40;38.70;;;;;;5010804;28;20900;-77
2023/10/14 00:30:12;;;;;;;22.48;10.88;;;20.30;38.90;;;;;;5012226;28;20396;-77
2023/10/14 00:32:38;;;;;;;18.38;11.63;;;20.30;39.10;;;;;;5011054;28;20547;-77
2023/10/14 00:35:09;;;;;;;26.42;12.15;;;20.30;39.90;;;;;;5011583;28;20748;-77
2023/10/14 00:37:35;;;;;;;22.15;12.10;;;20.20;41.10;;;;;;5012087;28;20388;-77
2023/10/14 00:40:10;;;;;;;22.75;11.20;;;20.10;42.10;;;;;;5011507;28;20459;-77
2023/10/14 00:42:36;;;;;;;25.52;12.75;;;20.00;44.00;;;;;;5013337;28;20388;-77
2023/10/14 00:45:09;;;;;;;24.50;11.90;;;19.70;50.40;;;;;;5015756;28;20396;-79
2023/10/14 00:47:40;;;;;;;19.00;11.70;;;19.40;58.80;;;;;;5015566;28;20388;-77
2023/10/14 00:50:32;;;;;;;19.08;12.02;;;19.00;59.70;;;;;;5016125;28;20886;-77
2023/10/14 00:52:57;;;;;;;28.25;12.80;;;18.80;66.10;;;;;;5019906;28;20420;-77
2023/10/14 00:55:34;;;;;;;23.70;12.50;;;18.50;67.20;;;;;;5017722;28;20389;-77
2023/10/14 00:58:00;;;;;;;23.17;13.10;;;18.40;68.80;;;;;;5001389;28;20400;-77
2023/10/14 01:00:38;;;;;;;24.50;12.55;;;18.30;71.40;;;;;;5013593;28;20910;-77
2023/10/14 01:03:07;;;;;;;21.75;12.60;;;18.30;72.30;;;;;;5013509;28;20866;-77
2023/10/14 01:05:36;;;;;;;27.02;12.90;;;18.30;71.80;;;;;;5012650;28;20393;-76
2023/10/14 01:08:03;;;;;;;26.27;14.40;;;18.20;73.80;;;;;;5010734;28;20381;-77
2023/10/14 01:10:29;;;;;;;28.80;14.00;;;18.20;73.80;;;;;;5010989;28;20831;-77
2023/10/14 01:12:56;;;;;;;29.83;13.70;;;18.20;73.20;;;;;;5010804;28;20496;-77
2023/10/14 01:15:22;;;;;;;24.90;13.05;;;18.30;71.30;;;;;;4996082;28;20412;-77
2023/10/14 01:17:49;;;;;;;23.37;13.40;;;18.40;69.20;;;;;;4994256;28;20411;-76
2023/10/14 01:22:51;;;;;;;25.98;12.93;;;18.40;67.90;;;;;;5014373;28;20395;-78
2023/10/14 01:25:18;;;;;;;23.23;11.43;;;18.50;67.20;;;;;;5017974;28;20389;-78
2023/10/14 01:27:44;;;;;;;18.38;10.70;;;18.50;64.30;;;;;;5016122;28;20388;-78
2023/10/14 01:30:14;;;;;;;15.40;9.63;;;18.60;63.90;;;;;;5019168;28;20393;-77
2023/10/14 01:32:48;;;;;;;19.67;9.65;;;18.60;63.80;;;;;;5006333;28;20412;-77
2023/10/14 01:37:58;;;;;;;19.05;9.00;;;18.00;99.90;;;;;;5017727;28;20385;-76
2023/10/14 01:43:05;;;;;;;6.50;3.30;;;16.60;99.90;;;;;;5013976;28;20421;-75
2023/10/14 01:45:39;;;;;;;5.05;2.22;;;15.80;99.90;;;;;;5013844;28;20453;-75
2023/10/14 01:50:46;;;;;;;3.65;2.17;;;14.90;99.90;;;;;;5013789;28;20388;-75
2023/10/14 01:53:21;;;;;;;2.63;1.50;;;14.70;99.90;;;;;;5013539;28;20490;-76
2023/10/14 01:55:47;;;;;;;0.80;0.50;;;14.50;99.90;;;;;;5013689;28;20787;-75
2023/10/14 01:58:22;;;;;;;0.80;0.50;;;14.20;99.90;;;;;;5013853;28;20412;-74
2023/10/14 02:03:50;;;;;;;0.80;0.50;;;14.30;99.90;;;;;;5013720;28;20415;-75
2023/10/14 02:06:20;;;;;;;0.80;0.50;;;14.20;99.90;;;;;;5013558;28;20385;-75
2023/10/14 02:08:47;;;;;;;0.80;0.50;;;14.20;99.90;;;;;;5013460;28;20430;-75
2023/10/14 02:11:16;;;;;;;1.10;0.70;;;14.10;99.90;;;;;;5013708;28;20393;-75
2023/10/14 02:13:42;;;;;;;1.00;0.70;;;14.10;99.90;;;;;;5014479;28;20483;-74
2023/10/14 02:16:08;;;;;;;0.80;0.50;;;14.10;99.90;;;;;;5014108;28;20396;-74
2023/10/14 02:18:38;;;;;;;1.00;0.60;;;14.20;99.90;;;;;;5014039;28;20381;-74
2023/10/14 02:21:11;;;;;;;0.80;0.50;;;14.20;99.90;;;;;;5013242;28;20520;-75
2023/10/14 02:23:44;;;;;;;0.80;0.50;;;14.20;99.90;;;;;;5013083;28;20472;-75
2023/10/14 02:26:24;;;;;;;0.80;0.50;;;14.20;99.90;;;;;;5013319;28;20428;-75
2023/10/14 02:28:54;;;;;;;0.80;0.50;;;14.10;99.90;;;;;;4995528;28;20472;-75
2023/10/14 02:33:54;;;;;;;0.80;0.50;;;14.00;99.90;;;;;;5012777;28;20423;-75
2023/10/14 02:36:28;;;;;;;0.80;0.50;;;14.10;99.90;;;;;;5013405;28;20393;-74
2023/10/14 02:38:55;;;;;;;0.80;0.50;;;14.00;99.90;;;;;;4996184;28;20446;-74
2023/10/14 02:41:22;;;;;;;0.80;0.50;;;13.90;99.90;;;;;;4995560;28;20447;-75
2023/10/14 02:44:00;;;;;;;0.80;0.50;;;13.90;99.90;;;;;;5013078;28;20396;-75
2023/10/14 02:46:26;;;;;;;0.80;0.50;;;13.90;99.90;;;;;;5013727;28;20471;-74
2023/10/14 02:48:53;;;;;;;5.60;0.50;;;13.90;99.90;;;;;;5013240;28;20790;-74
2023/10/14 02:51:35;;;;;;;0.80;0.50;;;13.90;99.90;;;;;;5014010;28;20419;-75
2023/10/14 02:54:13;;;;;;;0.80;0.50;;;13.90;99.90;;;;;;5013889;28;20489;-75
2023/10/14 02:59:21;;;;;;;0.80;0.50;;;14.00;99.90;;;;;;5013254;28;20430;-74
2023/10/14 03:04:39;;;;;;;0.90;0.60;;;13.90;99.90;;;;;;5013133;28;20451;-74
2023/10/14 03:07:07;;;;;;;0.80;0.50;;;14.00;99.90;;;;;;5012869;28;20389;-75
2023/10/14 03:09:34;;;;;;;0.80;0.50;;;14.10;99.90;;;;;;5012622;28;20385;-75
2023/10/14 03:12:00;;;;;;;0.80;0.60;;;14.10;99.90;;;;;;5012847;28;20393;-75
2023/10/14 03:14:28;;;;;;;8.80;1.00;;;14.10;99.90;;;;;;5012399;28;20413;-75
2023/10/14 03:16:53;;;;;;;0.80;0.50;;;14.20;99.90;;;;;;5012834;28;20931;-75
2023/10/14 03:19:19;;;;;;;0.80;0.60;;;14.10;99.90;;;;;;5012339;28;20523;-75
2023/10/14 03:21:58;;;;;;;10.50;1.07;;;13.90;99.90;;;;;;5012384;28;20391;-75
2023/10/14 03:24:26;;;;;;;0.80;0.70;;;13.40;99.90;;;;;;5012090;28;20392;-75
2023/10/14 03:26:58;;;;;;;0.90;0.70;;;13.20;99.90;;;;;;5012543;28;20384;-76
2023/10/14 03:29:25;;;;;;;1.00;0.60;;;13.20;99.90;;;;;;5014130;28;20388;-75
2023/10/14 03:31:52;;;;;;;3.20;0.70;;;13.10;99.90;;;;;;5013158;28;20385;-75
2023/10/14 03:34:18;;;;;;;1.40;0.73;;;13.20;99.90;;;;;;5012513;28;20779;-75
2023/10/14 03:36:43;;;;;;;1.63;0.80;;;13.10;99.90;;;;;;5012269;28;20417;-75
2023/10/14 03:39:35;;;;;;;1.40;0.50;;;13.10;99.90;;;;;;5011999;28;20427;-76
2023/10/14 03:42:10;;;;;;;2.10;0.80;;;13.10;99.90;;;;;;5011670;28;20389;-74
2023/10/14 03:44:35;;;;;;;0.80;0.50;;;13.10;99.90;;;;;;5011372;28;20863;-74
2023/10/14 03:47:03;;;;;;;1.53;0.73;;;13.00;99.90;;;;;;5011498;28;20399;-74
2023/10/14 03:49:32;;;;;;;5.50;1.10;;;12.90;99.90;;;;;;4993984;28;20483;-74
2023/10/14 03:51:58;;;;;;;0.90;0.80;;;12.70;99.90;;;;;;5010745;28;20572;-74
2023/10/14 03:54:26;;;;;;;4.67;0.90;;;12.60;99.90;;;;;;5011376;28;20396;-75
2023/10/14 03:56:51;;;;;;;2.60;1.00;;;12.60;99.90;;;;;;5011460;28;20389;-75
2023/10/14 03:59:21;;;;;;;0.80;0.50;;;12.50;99.90;;;;;;5011953;28;20396;-74
2023/10/14 04:01:46;;;;;;;2.00;1.10;;;12.50;99.90;;;;;;5011812;28;20385;-75
2023/10/14 04:04:18;;;;;;;0.90;0.60;;;12.50;99.90;;;;;;5011598;28;20389;-77
2023/10/14 04:12:53;;;;;;;0.80;0.60;;;12.70;99.90;;;;;;5011439;28;20393;-75
2023/10/14 04:14:54;;;;;;;0.80;0.60;;;12.70;99.90;;;;;;5005127;28;20455;-77
2023/10/14 04:17:21;;;;;;;1.20;0.80;;;12.70;99.90;;;;;;5011656;28;20392;-77
2023/10/14 04:19:48;;;;;;;0.80;0.67;;;12.80;99.90;;;;;;5011381;28;20810;-77
2023/10/14 04:22:31;;;;;;;7.05;0.77;;;12.80;99.90;;;;;;5011597;28;20427;-76
2023/10/14 04:30:21;;;;;;;1.00;0.60;;;12.80;99.90;;;;;;5011802;28;20420;-77
2023/10/14 04:35:23;;;;;;;2.03;0.68;;;12.80;99.90;;;;;;5012045;28;20391;-76
2023/10/14 04:37:53;;;;;;;1.30;0.80;;;12.80;99.90;;;;;;5012426;28;20404;-77
2023/10/14 04:44:00;;;;;;;0.80;0.50;;;12.80;99.90;;;;;;5024012;28;20423;-75
2023/10/14 04:45:57;;;;;;;8.10;0.60;;;12.70;99.90;;;;;;4999073;28;20381;-77
2023/10/14 04:48:35;;;;;;;5.40;0.68;;;12.70;99.90;;;;;;4999105;28;20740;-77
2023/10/14 04:51:06;;;;;;;0.80;0.60;;;12.70;99.90;;;;;;5015393;28;20389;-77
2023/10/14 04:53:32;;;;;;;0.90;0.60;;;12.50;99.90;;;;;;5015279;28;20409;-76
2023/10/14 04:56:04;;;;;;;0.80;0.50;;;12.40;99.90;;;;;;5015150;28;20385;-75
2023/10/14 04:58:32;;;;;;;2.17;0.88;;;12.40;99.90;;;;;;5012162;28;20376;-76
2023/10/14 05:01:03;;;;;;;0.80;0.50;;;12.40;99.90;;;;;;5011668;28;20384;-76
2023/10/14 05:03:29;;;;;;;1.30;0.90;;;12.40;99.90;;;;;;5011704;28;20396;-76
2023/10/14 05:05:56;;;;;;;0.80;0.50;;;12.20;99.90;;;;;;5012259;28;20419;-76
2023/10/14 05:08:24;;;;;;;0.80;0.50;;;12.10;99.90;;;;;;5011752;28;20397;-76
2023/10/14 05:10:53;;;;;;;2.10;0.73;;;12.00;99.90;;;;;;5010456;28;20385;-77
2023/10/14 05:13:31;;;;;;;0.90;0.70;;;12.00;99.90;;;;;;5010497;28;20409;-77
2023/10/14 05:16:14;;;;;;;4.30;1.40;;;11.90;99.90;;;;;;5010791;28;20403;-76
2023/10/14 05:18:43;;;;;;;1.10;0.68;;;11.90;99.90;;;;;;5011198;28;20818;-77
2023/10/14 05:21:35;;;;;;;2.00;0.70;;;12.00;99.90;;;;;;5011235;28;20389;-76
2023/10/14 05:24:02;;;;;;;0.90;0.50;;;12.00;99.90;;;;;;5010620;28;20570;-76
2023/10/14 05:26:28;;;;;;;0.80;0.50;;;11.80;99.90;;;;;;5011094;28;20483;-76
2023/10/14 05:28:54;;;;;;;7.50;0.70;;;11.80;99.90;;;;;;5010935;28;20475;-76
2023/10/14 05:31:20;;;;;;;2.20;1.20;;;11.70;99.90;;;;;;5011169;28;20401;-76
2023/10/14 05:33:48;;;;;;;13.80;1.15;;;11.70;99.90;;;;;;5011171;28;20457;-76
2023/10/14 05:36:14;;;;;;;0.90;0.60;;;11.70;99.90;;;;;;5010475;28;20725;-77
2023/10/14 05:38:41;;;;;;;0.80;0.50;;;11.70;99.90;;;;;;5010095;28;20392;-75
2023/10/14 05:41:11;;;;;;;0.90;0.70;;;11.70;99.90;;;;;;5010673;28;20472;-78
2023/10/14 05:43:37;;;;;;;0.80;0.50;;;11.60;99.90;;;;;;5010785;28;20898;-76
2023/10/14 05:46:12;;;;;;;0.90;0.70;;;11.60;99.90;;;;;;5011605;28;20402;-78
2023/10/14 05:48:37;;;;;;;1.50;0.80;;;11.60;99.90;;;;;;5013375;28;20397;-77
2023/10/14 05:51:04;;;;;;;1.07;0.53;;;11.60;99.90;;;;;;5013399;28;20399;-76
2023/10/14 05:53:31;;;;;;;1.92;0.63;;;11.60;99.90;;;;;;5011878;28;20404;-76
2023/10/14 05:56:09;;;;;;;16.35;1.10;;;11.60;99.90;;;;;;5014743;28;20748;-76
2023/10/14 05:58:38;;;;;;;0.80;0.50;;;11.60;99.90;;;;;;5013792;28;20439;-76
2023/10/14 06:01:12;;;;;;;1.10;0.80;;;11.60;99.90;;;;;;5011946;28;20901;-76
2023/10/14 06:03:38;;;;;;;1.70;0.60;;;11.50;99.90;;;;;;5010145;28;20856;-77
2023/10/14 06:06:09;;;;;;;0.90;0.50;;;11.70;99.90;;;;;;5010755;28;20393;-77
2023/10/14 06:08:36;;;;;;;1.30;1.10;;;11.60;99.90;;;;;;5010794;28;20421;-76
2023/10/14 06:11:01;;;;;;;7.80;0.70;;;11.60;99.90;;;;;;5010331;28;20864;-77
2023/10/14 06:13:29;;;;;;;1.00;0.60;;;11.60;99.90;;;;;;5010580;28;20551;-75
2023/10/14 06:15:54;;;;;;;0.85;0.52;;;11.60;99.90;;;;;;5014599;28;20423;-74
2023/10/14 06:18:20;;;;;;;0.90;0.52;;;11.60;99.90;;;;;;5014137;28;20396;-76
2023/10/14 06:20:45;;;;;;;0.90;0.50;;;11.60;99.90;;;;;;5013588;28;20388;-77
2023/10/14 06:23:12;;;;;;;1.20;0.90;;;11.60;99.90;;;;;;5013774;28;20399;-77
2023/10/14 06:25:38;;;;;;;1.75;0.80;;;11.60;99.90;;;;;;5013705;28;20408;-75
2023/10/14 06:28:05;;;;;;;0.90;0.50;;;11.60;99.30;;;;;;5013874;28;20471;-76
2023/10/14 06:30:33;;;;;;;1.10;0.80;;;11.70;95.00;;;;;;5021463;28;20404;-77
2023/10/14 06:33:03;;;;;;;0.90;0.50;;;11.70;96.20;;;;;;5016276;28;20412;-77
2023/10/14 06:35:31;;;;;;;1.20;0.70;;;11.70;91.10;;;;;;4997656;28;20405;-76
2023/10/14 06:37:58;;;;;;;1.10;0.60;;;11.80;88.50;;;;;;5015764;28;20412;-76
2023/10/14 06:40:24;;;;;;;4.70;0.80;;;11.80;89.40;;;;;;5019900;28;20497;-75
2023/10/14 06:42:50;;;;;;;1.40;0.80;;;11.70;91.00;;;;;;5019483;28;20388;-76
2023/10/14 06:45:21;;;;;;;2.30;0.80;;;11.80;92.30;;;;;;5019722;28;20822;-77
2023/10/14 06:47:50;;;;;;;3.20;0.80;;;11.80;87.70;;;;;;5025700;28;20460;-75
2023/10/14 06:50:20;;;;;;;0.90;0.50;;;11.80;88.60;;;;;;5020897;28;20438;-76
2023/10/14 06:52:47;;;;;;;2.10;1.17;;;11.80;89.40;;;;;;5016904;28;20405;-76
2023/10/14 06:55:12;;;;;;;5.40;1.00;;;11.80;87.30;;;;;;5016334;28;20859;-76
2023/10/14 06:57:42;;;;;;;1.00;0.70;;;11.80;87.00;;;;;;5017706;28;20403;-77
2023/10/14 07:00:12;;;;;;;2.70;0.80;;;11.80;83.90;;;;;;4997246;28;20405;-77
2023/10/14 07:02:38;;;;;;;2.40;0.90;;;11.90;82.40;;;;;;4999145;28;20396;-75
2023/10/14 07:05:05;;;;;;;0.90;0.60;;;11.90;78.40;;;;;;5016476;28;20400;-76
2023/10/14 07:07:32;;;;;;;3.47;0.63;;;11.90;76.40;;;;;;4995682;28;20412;-76
2023/10/14 07:09:59;;;;;;;1.50;0.70;;;12.00;77.00;;;;;;5014010;28;20630;-76
2023/10/14 07:12:25;;;;;;;5.10;0.90;;;11.90;81.70;;;;;;5013538;28;20740;-77
2023/10/14 07:14:51;;;;;;;6.47;1.10;;;12.00;75.60;;;;;;5012861;28;20584;-75
2023/10/14 07:17:22;;;;;;;1.20;0.60;;;12.00;76.10;;;;;;5015072;28;20451;-76
2023/10/14 07:19:48;;;;;;;2.00;0.60;;;12.00;75.50;;;;;;5027662;28;20412;-76
2023/10/14 07:22:20;;;;;;;0.90;0.50;;;12.10;74.80;;;;;;5025966;28;20428;-76
2023/10/14 07:24:46;;;;;;;2.00;0.90;;;12.10;73.20;;;;;;5012252;28;20389;-76
2023/10/14 07:27:13;;;;;;;1.00;0.77;;;12.10;71.30;;;;;;5010816;28;20388;-76
2023/10/14 07:29:39;;;;;;;0.90;0.60;;;12.20;70.70;;;;;;5011186;28;20439;-77
2023/10/14 07:32:05;;;;;;;0.90;0.50;;;12.20;70.60;;;;;;4994756;28;20508;-75
2023/10/14 07:34:31;;;;;;;0.90;0.50;;;12.30;72.80;;;;;;5011948;28;20983;-74
2023/10/14 07:36:56;;;;;;;1.50;1.07;;;12.30;67.70;;;;;;5011161;28;20412;-76
2023/10/14 07:39:27;;;;;;;10.50;1.30;;;12.40;67.60;;;;;;5011068;28;20393;-77
2023/10/14 07:41:53;;;;;;;2.30;0.80;;;12.50;65.30;;;;;;5011158;28;20397;-77
2023/10/14 07:44:20;;;;;;;0.90;0.50;;;12.50;67.30;;;;;;5011898;28;20400;-75
2023/10/14 07:46:46;;;;;;;3.50;1.00;;;12.70;62.50;;;;;;5011535;28;20735;-76
2023/10/14 07:49:13;;;;;;;1.40;0.60;;;12.70;66.30;;;;;;5011505;28;20395;-75
2023/10/14 07:51:39;;;;;;;1.17;0.82;;;12.60;62.30;;;;;;5010692;28;20507;-76
2023/10/14 07:54:06;;;;;;;0.90;0.50;;;12.70;62.20;;;;;;5010055;28;20427;-74
2023/10/14 07:56:32;;;;;;;0.90;0.50;;;12.80;63.90;;;;;;4993160;28;20387;-74
2023/10/14 07:58:58;;;;;;;1.00;0.50;;;12.80;62.10;;;;;;4991418;28;20401;-76
2023/10/14 08:01:23;;;;;;;3.30;0.60;;;12.80;58.20;;;;;;4992210;28;20500;-77
2023/10/14 08:03:49;;;;;;;2.70;1.10;;;12.90;56.60;;;;;;5001846;28;20783;-76
2023/10/14 08:06:17;;;;;;;0.90;0.50;;;12.90;56.00;;;;;;4993003;28;20388;-76
2023/10/14 08:08:47;;;;;;;0.90;0.60;;;12.90;59.00;;;;;;5008112;28;20464;-76
2023/10/14 08:11:14;;;;;;;6.00;0.90;;;12.90;59.20;;;;;;5013841;28;20419;-77
2023/10/14 08:13:42;;;;;;;3.00;1.20;;;13.10;56.10;;;;;;4995475;28;20455;-76
2023/10/14 08:16:09;;;;;;;1.60;0.90;;;13.00;55.30;;;;;;5012406;28;20412;-77
2023/10/14 08:18:37;;;;;;;1.17;0.88;;;13.10;55.10;;;;;;5014153;28;20393;-76
2023/10/14 08:21:03;;;;;;;1.70;0.70;;;13.10;52.70;;;;;;4995315;28;20472;-76
2023/10/14 08:23:29;;;;;;;1.50;1.10;;;13.20;53.80;;;;;;5012770;28;20835;-77
2023/10/14 08:25:57;;;;;;;1.20;0.75;;;13.20;54.00;;;;;;4996757;28;20406;-76
2023/10/14 08:28:33;;;;;;;0.90;0.60;;;13.30;52.90;;;;;;5014279;28;21216;-78
2023/10/14 08:30:59;;;;;;;0.90;0.50;;;13.40;51.90;;;;;;5013400;28;20648;-77
2023/10/14 08:33:28;;;;;;;5.30;1.20;;;13.50;50.40;;;;;;5016321;28;20424;-77
2023/10/14 08:35:55;;;;;;;1.70;1.00;;;13.70;48.30;;;;;;4996642;28;21121;-78
2023/10/14 08:38:27;;;;;;;2.10;0.80;;;13.90;47.20;;;;;;5017422;28;20385;-77
2023/10/14 08:40:53;;;;;;;1.80;1.20;;;14.20;45.40;;;;;;5018645;28;20976;-77
2023/10/14 08:43:26;;;;;;;1.87;0.73;;;14.30;44.90;;;;;;5014046;28;20783;-78
2023/10/14 08:45:53;;;;;;;0.90;0.60;;;14.60;43.80;;;;;;4995995;28;20812;-77
2023/10/14 08:48:24;;;;;;;1.02;0.82;;;14.70;42.50;;;;;;5011806;28;20476;-77
2023/10/14 08:50:55;;;;;;;3.00;0.90;;;14.80;42.70;;;;;;5011463;28;20401;-78
2023/10/14 08:53:22;;;;;;;1.30;0.70;;;14.70;42.00;;;;;;4992841;28;20842;-78
2023/10/14 08:55:48;;;;;;;2.78;0.70;;;14.60;40.60;;;;;;5017705;28;20929;-77
2023/10/14 08:58:14;;;;;;;10.00;1.30;;;14.40;42.40;;;;;;5014456;28;20442;-76
2023/10/14 09:00:43;;;;;;;2.00;0.50;;;14.20;42.90;;;;;;5011251;28;20886;-76
2023/10/14 09:03:09;;;;;;;0.90;0.50;;;14.10;43.00;;;;;;5014304;28;20419;-78
2023/10/14 09:05:41;;;;;;;0.90;0.50;;;14.10;44.30;;;;;;5012772;28;20399;-78
2023/10/14 09:08:09;;;;;;;15.23;3.30;;;14.10;43.00;;;;;;5011917;28;20401;-77
2023/10/14 09:10:38;;;;;;;33.05;4.47;;;14.00;43.40;;;;;;4997811;28;20392;-76
2023/10/14 09:13:05;;;;;;;18.70;4.60;;;13.90;42.20;;;;;;5018536;28;20408;-78
2023/10/14 09:15:33;;;;;;;25.55;3.97;;;13.90;43.00;;;;;;5018514;28;20424;-76
2023/10/14 09:18:00;;;;;;;24.90;3.60;;;13.90;41.30;;;;;;5020341;28;20472;-76
2023/10/14 09:20:32;;;;;;;23.70;4.18;;;13.90;41.70;;;;;;5018299;28;20392;-77
2023/10/14 09:23:27;;;;;;;19.30;3.70;;;13.90;41.90;;;;;;5017123;28;20403;-78
2023/10/14 09:26:10;;;;;;;16.00;3.10;;;14.00;41.00;;;;;;4998684;28;20405;-77
2023/10/14 09:28:40;;;;;;;22.25;3.83;;;14.10;40.30;;;;;;5018513;28;20483;-77
2023/10/14 09:31:08;;;;;;;12.95;3.60;;;14.10;39.60;;;;;;5014194;28;20385;-77
2023/10/14 09:33:43;;;;;;;18.58;3.30;;;14.10;40.10;;;;;;5015758;28;20408;-78
2023/10/14 09:36:18;;;;;;;18.80;3.92;;;14.20;39.30;;;;;;5012596;28;20392;-77
2023/10/14 09:38:48;;;;;;;17.38;3.90;;;14.10;38.90;;;;;;5013260;28;20380;-77
2023/10/14 09:41:15;;;;;;;19.95;4.13;;;14.20;38.40;;;;;;4996217;28;20401;-77
2023/10/14 09:43:47;;;;;;;15.13;3.30;;;14.20;38.60;;;;;;5012464;28;20805;-78
2023/10/14 09:46:17;;;;;;;16.95;3.92;;;14.10;39.30;;;;;;5010889;28;20416;-76
2023/10/14 09:48:46;;;;;;;12.98;3.50;;;14.30;38.30;;;;;;4993032;28;20439;-78
2023/10/14 09:51:16;;;;;;;18.63;3.20;;;14.40;37.80;;;;;;4999014;28;20400;-78
2023/10/14 09:53:45;;;;;;;17.35;3.95;;;14.50;36.10;;;;;;5017222;28;20488;-76
2023/10/14 09:56:13;;;;;;;15.00;3.60;;;14.60;35.70;;;;;;4997329;28;20456;-79
2023/10/14 09:58:41;;;;;;;14.68;2.92;;;14.60;35.20;;;;;;5012643;28;20415;-77
2023/10/14 10:01:11;;;;;;;18.98;3.60;;;14.60;34.50;;;;;;5019307;28;20384;-79
2023/10/14 10:03:48;;;;;;;12.37;2.97;;;14.50;34.30;;;;;;5020160;28;20496;-79
2023/10/14 10:06:43;;;;;;;13.95;3.00;;;14.30;34.50;;;;;;5023355;28;20396;-78
2023/10/14 10:09:34;;;;;;;17.25;3.75;;;14.20;34.40;;;;;;5025129;28;20377;-79
2023/10/14 10:12:01;;;;;;;20.58;3.88;;;13.90;35.20;;;;;;5007317;28;20424;-78
2023/10/14 10:14:28;;;;;;;14.23;3.50;;;13.80;36.40;;;;;;5024258;28;20408;-79
2023/10/14 10:16:57;;;;;;;14.07;3.40;;;13.90;35.70;;;;;;5022296;28;20393;-79
2023/10/14 10:19:23;;;;;;;13.48;2.90;;;13.90;35.30;;;;;;5018952;28;20463;-78
2023/10/14 10:22:12;;;;;;;23.83;4.45;;;14.00;35.60;;;;;;5004554;28;20480;-78
2023/10/14 10:24:41;;;;;;;16.20;3.05;;;14.20;36.20;;;;;;5020063;28;20393;-77
2023/10/14 10:27:10;;;;;;;15.40;3.30;;;14.30;34.60;;;;;;5019218;28;20415;-77
2023/10/14 10:29:55;;;;;;;9.38;2.90;;;14.40;32.10;;;;;;4999831;28;20487;-75
2023/10/14 10:32:23;;;;;;;20.75;4.47;;;14.50;32.90;;;;;;5019354;28;20388;-77
2023/10/14 10:35:10;;;;;;;20.25;3.72;;;14.70;33.30;;;;;;5006007;28;20412;-77
2023/10/14 10:37:39;;;;;;;14.27;3.33;;;15.00;32.30;;;;;;5005630;28;20458;-77
2023/10/14 10:40:10;;;;;;;13.40;2.97;;;15.00;31.30;;;;;;5000443;28;21009;-76
2023/10/14 10:42:45;;;;;;;14.48;3.13;;;15.20;31.00;;;;;;5015613;28;20778;-77
2023/10/14 10:45:20;;;;;;;19.33;4.05;;;15.20;30.00;;;;;;5018299;28;20389;-77
2023/10/14 10:47:57;;;;;;;15.07;3.50;;;15.10;30.90;;;;;;5016383;28;20385;-78
2023/10/14 10:50:41;;;;;;;20.60;3.80;;;15.30;30.20;;;;;;5016304;28;20465;-76
2023/10/14 10:53:07;;;;;;;19.55;3.20;;;15.50;29.80;;;;;;5019342;28;20412;-76
2023/10/14 10:55:38;;;;;;;12.38;3.20;;;15.60;29.10;;;;;;5016781;28;20468;-77
2023/10/14 10:58:05;;;;;;;17.00;3.60;;;15.70;27.50;;;;;;5012948;28;20533;-77
2023/10/14 11:00:32;;;;;;;14.85;2.95;;;15.80;26.80;;;;;;5014584;28;20427;-76
2023/10/14 11:03:01;;;;;;;12.52;3.33;;;15.80;26.30;;;;;;5015056;28;20420;-77
2023/10/14 11:05:29;;;;;;;16.17;3.60;;;15.70;26.60;;;;;;5017365;28;20392;-77
2023/10/14 11:07:56;;;;;;;15.47;2.80;;;15.70;27.40;;;;;;5016519;28;20427;-76
2023/10/14 11:10:23;;;;;;;14.85;3.08;;;15.60;25.60;;;;;;5003877;28;20400;-76
2023/10/14 11:12:49;;;;;;;14.43;3.00;;;15.40;26.50;;;;;;5021946;28;20737;-76
2023/10/14 11:15:19;;;;;;;22.48;3.47;;;15.10;28.10;;;;;;5019615;28;20407;-77
2023/10/14 11:17:46;;;;;;;11.27;3.78;;;15.00;26.90;;;;;;5017727;28;20874;-77
2023/10/14 11:20:15;;;;;;;13.82;2.90;;;15.20;27.50;;;;;;5001190;28;20396;-77
2023/10/14 11:22:43;;;;;;;14.68;3.25;;;15.60;27.50;;;;;;5018171;28;20381;-77
2023/10/14 11:25:10;;;;;;;17.50;3.03;;;15.90;26.40;;;;;;5017641;28;20396;-76
2023/10/14 11:27:36;;;;;;;20.85;3.75;;;16.10;23.80;;;;;;5018710;28;20756;-77
2023/10/14 11:30:04;;;;;;;11.25;2.42;;;16.00;23.10;;;;;;5020198;28;20397;-77
2023/10/14 11:32:30;;;;;;;10.45;2.70;;;15.70;22.50;;;;;;5020529;28;20384;-77
2023/10/14 11:34:58;;;;;;;11.37;3.03;;;15.40;23.80;;;;;;5021151;28;20461;-77
2023/10/14 11:37:26;;;;;;;12.50;2.70;;;15.30;23.80;;;;;;5018769;28;20380;-79
2023/10/14 11:39:53;;;;;;;13.25;2.97;;;15.30;23.90;;;;;;5018727;28;20397;-77
2023/10/14 11:42:19;;;;;;;13.75;3.10;;;15.50;23.30;;;;;;5016459;28;20428;-76
2023/10/14 11:44:50;;;;;;;13.70;2.37;;;15.80;23.60;;;;;;4998473;28;20535;-77
2023/10/14 11:47:17;;;;;;;13.70;2.97;;;15.80;21.60;;;;;;5022356;28;20396;-77
2023/10/14 11:49:46;;;;;;;13.25;2.70;;;15.70;21.80;;;;;;5015933;28;20464;-78
2023/10/14 11:52:12;;;;;;;10.83;2.70;;;15.70;21.60;;;;;;5018378;28;20748;-78
2023/10/14 11:54:41;;;;;;;6.77;2.30;;;15.90;22.30;;;;;;5017978;28;20401;-78
2023/10/14 11:57:07;;;;;;;13.95;2.40;;;16.00;22.00;;;;;;5018967;28;20381;-77
2023/10/14 11:59:33;;;;;;;13.57;3.40;;;16.00;22.40;;;;;;5020198;28;20396;-78
2023/10/14 12:01:59;;;;;;;13.77;3.00;;;16.20;22.20;;;;;;5019957;28;20891;-78
2023/10/14 12:04:24;;;;;;;15.17;2.83;;;16.50;22.10;;;;;;5016893;28;20393;-77
2023/10/14 12:06:50;;;;;;;14.35;3.20;;;16.60;21.10;;;;;;5016581;28;20752;-77
2023/10/14 12:09:19;;;;;;;10.55;2.90;;;16.70;20.20;;;;;;5018077;28;20381;-76
2023/10/14 12:11:45;;;;;;;9.63;2.38;;;16.70;19.60;;;;;;5016821;28;20971;-76
2023/10/14 12:14:11;;;;;;;18.80;2.97;;;16.60;20.10;;;;;;5017695;28;20437;-79
2023/10/14 12:16:40;;;;;;;8.23;2.30;;;16.60;20.40;;;;;;5018647;28;20910;-78
2023/10/14 12:19:05;;;;;;;16.40;2.90;;;16.40;19.80;;;;;;5020486;28;20389;-79
2023/10/14 12:21:31;;;;;;;12.60;2.50;;;16.40;20.10;;;;;;5017389;28;20442;-78
2023/10/14 12:24:02;;;;;;;15.93;2.80;;;16.40;19.30;;;;;;5019875;28;20775;-78
2023/10/14 12:26:30;;;;;;;5.95;1.88;;;16.30;19.30;;;;;;5020318;28;20420;-77
2023/10/14 12:28:56;;;;;;;6.50;2.10;;;16.20;17.80;;;;;;5016213;28;20396;-77
2023/10/14 12:31:25;;;;;;;13.77;2.60;;;16.00;16.40;;;;;;5016574;28;20392;-79
2023/10/14 12:33:50;;;;;;;9.63;2.00;;;16.00;16.40;;;;;;5013740;28;20915;-79
2023/10/14 12:36:17;;;;;;;12.87;2.50;;;16.00;17.40;;;;;;5017320;28;20446;-78
2023/10/14 12:38:43;;;;;;;8.48;2.40;;;16.00;17.50;;;;;;5016760;28;20381;-78
2023/10/14 12:41:21;;;;;;;9.60;2.30;;;16.00;17.70;;;;;;5017914;28;20486;-79
2023/10/14 12:43:55;;;;;;;8.85;2.50;;;16.10;17.80;;;;;;5017856;28;20423;-79
2023/10/14 12:46:22;;;;;;;9.18;2.40;;;16.10;17.50;;;;;;5018366;28;20443;-78
2023/10/14 12:48:50;;;;;;;7.80;1.93;;;15.90;18.20;;;;;;5018467;28;20416;-77
2023/10/14 12:51:17;;;;;;;12.63;2.67;;;15.70;17.80;;;;;;5025696;28;20384;-78
2023/10/14 12:53:47;;;;;;;8.85;2.50;;;15.70;18.00;;;;;;5023099;28;20420;-78
2023/10/14 12:56:20;;;;;;;9.10;2.30;;;15.90;18.20;;;;;;5022807;28;20420;-77
2023/10/14 12:58:48;;;;;;;11.07;2.75;;;16.20;17.90;;;;;;5017155;28;20389;-77
2023/10/14 13:01:19;;;;;;;7.97;2.30;;;16.60;17.80;;;;;;5019022;28;20436;-77
2023/10/14 13:03:52;;;;;;;9.75;2.33;;;16.70;17.00;;;;;;5019543;28;20500;-78
2023/10/14 13:06:23;;;;;;;13.45;2.70;;;16.60;17.70;;;;;;5025209;28;20725;-77
2023/10/14 13:09:00;;;;;;;11.27;2.60;;;16.20;19.20;;;;;;5021160;28;20417;-78
2023/10/14 13:11:30;;;;;;;10.88;2.67;;;15.90;23.20;;;;;;5016258;28;20448;-78
2023/10/14 13:13:55;;;;;;;8.38;3.10;;;15.30;30.00;;;;;;5015768;28;20459;-78
2023/10/14 13:16:23;;;;;;;15.38;2.85;;;14.00;43.10;;;;;;5014184;28;20731;-78
2023/10/14 13:18:56;;;;;;;16.67;3.35;;;13.40;47.10;;;;;;5015045;28;20409;-78
2023/10/14 13:21:28;;;;;;;7.47;2.57;;;13.20;47.60;;;;;;5014716;28;20794;-78
2023/10/14 13:23:55;;;;;;;14.18;3.08;;;13.40;45.90;;;;;;5013952;28;20749;-78
2023/10/14 13:26:21;;;;;;;10.50;2.90;;;13.50;42.60;;;;;;4999652;28;20428;-77
2023/10/14 13:28:50;;;;;;;17.42;2.63;;;13.60;37.80;;;;;;5018345;28;20840;-80